• Join FlightAware (Why Join?)
  • Login
  • US Flag 
08:54PM EDT


 

Airport Tracker/Info


-or-


 

Live Flight TrackerFlight Track Log ✈ RPA3228 ✈ 02-Nov-2013 ✈ KCHS - KDCA

Flight Track Log - Related Links

Times and Time Zones

All times are in EDT time to prevent confusion due to time zone crossing. See the RPA3228 flight status page for this flight to view local times or setup timezone preferences in your user account.

Time Position Orientation Groundspeed Altitude Reporting Facility
EDT Latitude Longitude Course Direction KTS MPH feet Rate Location/Type
07:51AM 32.8969 -79.9781 51° Northeast 260 299 4,000  Level Jacksonville Center
07:52AM 32.9564 -79.9292 35° Northeast 265 305 7,800 3,600 Climbing Jacksonville Center
07:53AM 33.2806 -79.8618 13° North  Level Estimated
07:53AM 33.0397 -79.9264 North 271 312 11,300  Level Jacksonville Center
07:54AM 33.3823 -79.8462 North  Level FlightAware Approximate
07:54AM 33.1325 -79.8789 23° Northeast 308 354 14,000  Level Jacksonville Center
07:55AM 33.4840 -79.8306 North  Level FlightAware Approximate
07:55AM 33.2294 -79.8283 24° Northeast 351 404 17,300  Level Jacksonville Center
07:56AM 33.5791 -79.7846 17° North  Level Estimated
07:56AM 33.3344 -79.7725 24° Northeast 380 437 20,200  Level Jacksonville Center
07:57AM 33.6742 -79.7384 51° Northeast  Level Estimated
07:57AM 33.4417 -79.7139 25° Northeast 399 459 22,700  Level Jacksonville Center
07:58AM 33.5547 -79.6525 24° Northeast 425 489 23,000 120 Climbing Jacksonville Center
07:59AM 33.6681 -79.5936 23° Northeast 430 495 23,000 840 Level Jacksonville Center
08:00AM 33.7811 -79.5319 24° Northeast 435 501 24,700 1,860 Climbing Jacksonville Center
08:01AM 33.8983 -79.4672 25° Northeast 435 501 26,800 1,740 Climbing Jacksonville Center
08:03AM 34.1106 -79.3517 24° Northeast 456 525 29,700 1,620 Climbing Washington Center
08:04AM 34.2400 -79.2822 24° Northeast 477 549 31,500 1,620 Climbing Washington Center
08:05AM 34.3592 -79.2119 26° Northeast 500 575 33,000 720 Climbing Washington Center
08:06AM 34.4844 -79.1394 25° Northeast 505 581 33,000  Level Washington Center
08:07AM 34.6139 -79.0644 25° Northeast 505 581 33,000  Level Washington Center
08:08AM 34.7433 -78.9889 26° Northeast 505 581 33,000  Level Washington Center
08:09AM 34.8706 -78.9158 25° Northeast 505 581 33,000  Level Washington Center
08:10AM 34.9978 -78.8400 26° Northeast 505 581 33,000  Level Washington Center
08:11AM 35.1269 -78.7664 25° Northeast 505 581 33,000  Level Washington Center
08:12AM 35.2542 -78.6900 26° Northeast 505 581 33,000  Level Washington Center
08:13AM 35.3836 -78.6136 26° Northeast 510 587 33,000  Level Washington Center
08:14AM 35.5233 -78.5294 26° Northeast 510 587 33,000  Level Washington Center
08:15AM 35.6544 -78.4525 25° Northeast 505 581 33,000  Level Washington Center
08:16AM 35.7794 -78.3800 25° Northeast 505 581 33,000  Level Washington Center
08:17AM 35.9064 -78.3050 26° Northeast 505 581 33,000 -780 Level Washington Center
08:18AM 36.0375 -78.2247 26° Northeast 505 581 31,500 -1,740 Descending Washington Center
08:19AM 36.1642 -78.1494 26° Northeast 505 581 29,600 -1,860 Descending Washington Center
08:20AM 36.2911 -78.0711 26° Northeast 505 581 27,800 -1,320 Descending Washington Center
08:21AM 36.4114 -77.9975 26° Northeast 495 570 27,000 -420 Descending Washington Center
08:22AM 36.5342 -77.9211 27° Northeast 490 564 27,000 -660 Level Washington Center
08:23AM 36.6544 -77.8469 26° Northeast 490 564 25,800 -1,320 Descending Washington Center
08:24AM 36.7706 -77.7753 26° Northeast 477 549 24,500 -1,260 Descending Washington Center
08:25AM 36.8886 -77.7058 25° Northeast 464 534 23,300 -1,260 Descending Washington Center
08:26AM 37.0025 -77.6333 27° Northeast 459 528 22,100 -660 Descending Washington Center
08:27AM 37.1119 -77.5661 26° Northeast 454 522 22,000 -60 Descending Washington Center
08:28AM 37.2258 -77.4933 27° Northeast 454 522 22,000 -300 Level Washington Center
08:29AM 37.3375 -77.4256 26° Northeast 454 522 21,500 -540 Descending Washington Center
08:30AM 37.4492 -77.3525 27° Northeast 454 522 21,000 -300 Descending Washington Center
08:31AM 37.5667 -77.3053 18° North 449 517 21,000 -900 Level Washington Center
08:32AM 37.6836 -77.2817 North 431 496 19,200 -1,920 Descending Washington Center
08:33AM 37.7947 -77.2578 10° North 417 480 17,300 -1,680 Descending Washington Center
08:34AM 37.9014 -77.2367 North 399 459 15,900 -1,560 Descending Washington Center
08:35AM 38.0036 -77.2178 North 382 440 14,300 -3,000 Descending Washington Center
08:36AM 38.1000 -77.1908 12° North 360 414 10,000 -1,140 Descending Washington Center
08:37AM 38.1961 -77.1744 North 342 394 12,100 120 Climbing Washington Center
08:38AM 38.2778 -77.1575 North 321 369 10,300 -1,380 Descending Washington Center
08:39AM 38.3553 -77.1353 13° North 316 364 9,400 -1,380 Descending Washington Center
08:40AM 38.4369 -77.1078 15° North 311 358 7,600 -1,740 Descending Washington Center
08:41AM 38.5142 -77.0828 14° North 295 339 5,900 -1,920 Descending Washington Center
08:42AM 38.5875 -77.0578 15° North 287 330 3,900 -1,500 Descending Washington Center
08:43AM 38.6667 -77.0333 14° North 227 261 3,000 -780 Descending Potomac TRACON
08:44AM 38.7000 -77.0333 360° North 186 214 2,500 -660 Descending Potomac TRACON
08:45AM 38.7500 -77.0333 360° North 169 194 1,900 -840 Descending Potomac TRACON
08:46AM 38.8000 -77.0333 360° North 158 182 1,000 -840 Descending Potomac TRACON
08:47AM 38.8333 -77.0333 360° North 130 150 300 -720 Descending Potomac TRACON